Time;durP1;ratioP1;P1;durP2;ratioP2;P2;SDS_P1;SDS_P2;PMS_P1;PMS_P2;Temp;Humidity;BMP_temperature;BMP_pressure;BME280_temperature;BME280_humidity;BME280_pressure;Samples;Min_cycle;Max_cycle;Signal;HPM_P1;HPM_P2
2022/05/04 00:00:16;;;;;;;22.65;17.38;;;11.00;99.90;;;;;;2483685;23;20016;-75
2022/05/04 00:01:16;;;;;;;19.48;16.67;;;11.00;99.90;;;;;;2494734;23;20013;-73
2022/05/04 00:02:17;;;;;;;22.35;16.77;;;11.00;99.90;;;;;;2494882;23;20559;-72
2022/05/04 00:03:17;;;;;;;20.92;17.20;;;11.00;99.90;;;;;;2483736;23;20083;-75
2022/05/04 00:04:18;;;;;;;21.50;17.13;;;10.90;99.90;;;;;;2483960;23;20035;-72
2022/05/04 00:05:19;;;;;;;21.60;17.20;;;10.90;99.90;;;;;;2484120;23;20420;-72
2022/05/04 00:06:21;;;;;;;20.00;16.88;;;10.90;99.90;;;;;;2484098;23;20012;-72
2022/05/04 00:07:22;;;;;;;20.27;16.73;;;10.90;99.90;;;;;;2482990;23;20015;-72
2022/05/04 00:08:23;;;;;;;19.70;16.50;;;10.90;99.90;;;;;;2483900;23;20016;-72
2022/05/04 00:09:23;;;;;;;20.58;16.63;;;10.90;99.90;;;;;;2484088;23;20016;-72
2022/05/04 00:10:24;;;;;;;18.63;16.13;;;10.90;99.90;;;;;;2484069;23;20517;-73
2022/05/04 00:11:25;;;;;;;19.73;16.40;;;10.90;99.90;;;;;;2484247;23;20080;-73
2022/05/04 00:12:26;;;;;;;22.20;16.48;;;10.90;99.90;;;;;;2484356;23;20045;-72
2022/05/04 00:13:27;;;;;;;20.75;16.67;;;10.80;99.90;;;;;;2495151;23;20015;-73
2022/05/04 00:14:29;;;;;;;19.65;15.82;;;10.80;99.90;;;;;;2495005;23;20592;-73
2022/05/04 00:15:30;;;;;;;20.17;16.90;;;10.80;99.90;;;;;;2484221;23;20289;-73
2022/05/04 00:16:30;;;;;;;19.70;16.33;;;10.80;99.90;;;;;;2484066;23;20006;-73
2022/05/04 00:17:31;;;;;;;19.70;16.58;;;10.70;99.90;;;;;;2483510;23;20007;-73
2022/05/04 00:18:32;;;;;;;18.80;15.98;;;10.70;99.90;;;;;;2484178;23;20585;-72
2022/05/04 00:19:33;;;;;;;19.88;16.65;;;10.70;99.90;;;;;;2484108;23;20055;-74
2022/05/04 00:20:33;;;;;;;21.23;16.50;;;10.70;99.90;;;;;;2494995;23;20082;-74
2022/05/04 00:21:34;;;;;;;18.10;15.75;;;10.70;99.90;;;;;;2494868;23;20083;-72
2022/05/04 00:22:34;;;;;;;17.63;15.70;;;10.70;99.90;;;;;;2494782;23;20011;-72
2022/05/04 00:23:35;;;;;;;19.38;16.13;;;10.70;99.90;;;;;;2483867;23;20011;-74
2022/05/04 00:24:35;;;;;;;21.50;15.48;;;10.60;99.90;;;;;;2483891;23;20007;-73
2022/05/04 00:25:36;;;;;;;20.33;15.27;;;10.70;99.90;;;;;;2483855;23;20058;-74
2022/05/04 00:26:37;;;;;;;19.30;15.57;;;10.60;99.90;;;;;;2483652;23;20011;-74
2022/05/04 00:27:38;;;;;;;18.67;16.02;;;10.60;99.90;;;;;;2482316;23;20108;-73
2022/05/04 00:28:39;;;;;;;19.80;16.00;;;10.60;99.90;;;;;;2483153;23;20445;-74
2022/05/04 00:29:39;;;;;;;20.13;15.82;;;10.60;99.90;;;;;;2483925;23;20007;-74
2022/05/04 00:30:40;;;;;;;20.25;16.40;;;10.60;99.90;;;;;;2483798;23;20085;-73
2022/05/04 00:31:41;;;;;;;19.95;16.30;;;10.50;99.90;;;;;;2484159;23;20031;-73
2022/05/04 00:32:41;;;;;;;19.10;15.68;;;10.60;99.90;;;;;;2484121;23;20067;-73
2022/05/04 00:33:42;;;;;;;20.25;16.02;;;10.60;99.90;;;;;;2483002;23;20459;-73
2022/05/04 00:34:43;;;;;;;20.42;16.17;;;10.60;99.90;;;;;;2483037;23;20000;-73
2022/05/04 00:35:44;;;;;;;18.58;15.43;;;10.60;99.90;;;;;;2483949;23;20038;-74
2022/05/04 00:36:44;;;;;;;19.90;15.77;;;10.60;99.90;;;;;;2483631;23;20485;-74
2022/05/04 00:37:45;;;;;;;19.50;16.33;;;10.60;99.90;;;;;;2483201;23;20005;-73
2022/05/04 00:38:45;;;;;;;19.75;15.82;;;10.60;99.90;;;;;;2483826;23;20015;-74
2022/05/04 00:39:47;;;;;;;18.88;15.70;;;10.60;99.90;;;;;;2483733;23;20453;-73
2022/05/04 00:40:47;;;;;;;19.67;16.45;;;10.50;99.90;;;;;;2483734;23;20015;-74
2022/05/04 00:41:48;;;;;;;20.85;16.20;;;10.50;99.90;;;;;;2483953;23;20079;-74
2022/05/04 00:42:48;;;;;;;20.85;17.48;;;10.50;99.90;;;;;;2484125;23;20012;-74
2022/05/04 00:43:53;;;;;;;20.25;16.90;;;10.50;99.90;;;;;;2483938;23;20341;-74
2022/05/04 00:44:54;;;;;;;20.73;16.20;;;10.50;99.90;;;;;;2483983;23;20461;-72
2022/05/04 00:45:55;;;;;;;21.30;17.23;;;10.40;99.90;;;;;;2483316;23;20004;-74
2022/05/04 00:46:55;;;;;;;19.92;16.48;;;10.40;99.90;;;;;;2482685;23;20012;-73
2022/05/04 00:47:56;;;;;;;20.63;16.67;;;10.40;99.90;;;;;;2484395;23;20012;-74
2022/05/04 00:48:56;;;;;;;20.70;16.65;;;10.40;99.90;;;;;;2483857;23;20003;-71
2022/05/04 00:50:04;;;;;;;19.27;15.50;;;10.30;99.90;;;;;;2483613;23;20011;-74
2022/05/04 00:51:05;;;;;;;18.40;16.30;;;10.30;99.90;;;;;;2484058;23;20441;-73
2022/05/04 00:52:06;;;;;;;18.35;15.98;;;10.30;99.90;;;;;;2483781;23;20015;-74
2022/05/04 00:53:08;;;;;;;19.50;16.08;;;10.30;99.90;;;;;;2483875;23;20433;-74
2022/05/04 00:54:08;;;;;;;18.90;16.27;;;10.30;99.90;;;;;;2483623;23;20074;-75
2022/05/04 00:55:10;;;;;;;21.05;17.08;;;10.30;99.90;;;;;;2483711;23;20429;-73
2022/05/04 00:56:12;;;;;;;19.60;16.30;;;10.30;99.90;;;;;;2483811;23;20015;-73
2022/05/04 00:57:14;;;;;;;19.55;16.65;;;10.20;99.90;;;;;;2483168;23;20187;-74
2022/05/04 00:59:37;;;;;;;20.15;17.13;;;10.20;99.90;;;;;;2483106;23;20012;-74
2022/05/04 01:00:38;;;;;;;18.52;16.35;;;10.10;99.90;;;;;;2483551;23;19999;-74
2022/05/04 01:01:39;;;;;;;18.63;16.40;;;10.10;99.90;;;;;;2483992;23;20818;-73
2022/05/04 01:02:41;;;;;;;20.15;17.17;;;10.10;99.90;;;;;;2483097;23;20083;-73
2022/05/04 01:03:41;;;;;;;19.63;16.73;;;10.10;99.90;;;;;;2483185;23;20076;-74
2022/05/04 01:04:42;;;;;;;19.55;16.42;;;10.10;99.90;;;;;;2483118;23;20445;-74
2022/05/04 01:05:43;;;;;;;19.58;16.27;;;10.00;99.90;;;;;;2482984;23;20012;-74
2022/05/04 01:06:45;;;;;;;21.17;17.25;;;10.00;99.90;;;;;;2494689;23;20029;-74
2022/05/04 01:07:47;;;;;;;20.27;16.13;;;10.00;99.90;;;;;;2483245;23;20008;-73
2022/05/04 01:08:48;;;;;;;20.10;16.90;;;10.00;99.90;;;;;;2483838;23;20054;-74
2022/05/04 01:09:49;;;;;;;20.90;16.63;;;10.00;99.90;;;;;;2483688;23;20030;-73
2022/05/04 01:10:50;;;;;;;19.35;16.88;;;10.00;99.90;;;;;;2483446;23;20422;-74
2022/05/04 01:11:51;;;;;;;18.52;16.52;;;10.00;99.90;;;;;;2483677;23;20015;-73
2022/05/04 01:12:53;;;;;;;20.80;16.60;;;9.90;99.90;;;;;;2483839;23;20008;-73
2022/05/04 01:14:02;;;;;;;21.48;16.92;;;9.90;99.90;;;;;;2483415;23;20026;-73
2022/05/04 01:15:03;;;;;;;19.70;16.00;;;9.90;99.90;;;;;;2483778;23;20016;-74
2022/05/04 01:16:04;;;;;;;19.88;16.60;;;9.90;99.90;;;;;;2483618;23;20008;-74
2022/05/04 01:17:05;;;;;;;19.15;16.52;;;9.90;99.90;;;;;;2493748;23;20011;-74
2022/05/04 01:18:05;;;;;;;19.90;16.25;;;9.90;99.90;;;;;;2494655;23;20008;-74
2022/05/04 01:19:07;;;;;;;17.58;15.40;;;9.90;99.90;;;;;;2483473;23;20180;-74
2022/05/04 01:20:09;;;;;;;18.35;16.33;;;9.90;99.90;;;;;;2483274;23;20104;-74
2022/05/04 01:21:09;;;;;;;20.58;15.80;;;9.90;99.90;;;;;;2483718;23;20050;-74
2022/05/04 01:22:10;;;;;;;20.48;16.25;;;9.90;99.90;;;;;;2483824;23;19999;-74
2022/05/04 01:23:10;;;;;;;18.02;15.38;;;9.90;99.90;;;;;;2483624;23;20000;-74
2022/05/04 01:24:11;;;;;;;18.58;15.75;;;9.90;99.90;;;;;;2483664;23;20015;-74
2022/05/04 01:25:12;;;;;;;18.42;15.85;;;9.80;99.90;;;;;;2483647;23;20075;-73
2022/05/04 01:26:16;;;;;;;17.42;15.52;;;9.80;99.90;;;;;;2483672;23;20012;-74
2022/05/04 01:27:17;;;;;;;19.83;15.50;;;9.80;99.90;;;;;;2483026;23;20011;-74
2022/05/04 01:28:18;;;;;;;22.80;15.40;;;9.80;99.90;;;;;;2483659;23;20509;-72
2022/05/04 01:29:18;;;;;;;18.35;15.63;;;9.80;99.90;;;;;;2494655;23;20520;-74
2022/05/04 01:30:19;;;;;;;17.35;15.27;;;9.80;99.90;;;;;;2494381;23;20003;-75
2022/05/04 01:31:20;;;;;;;18.75;16.08;;;9.80;99.90;;;;;;2483825;23;20022;-72
2022/05/04 01:32:20;;;;;;;18.15;15.32;;;9.80;99.90;;;;;;2483596;23;20091;-74
2022/05/04 01:33:21;;;;;;;18.48;15.65;;;9.80;99.90;;;;;;2483475;23;20003;-74
2022/05/04 01:34:26;;;;;;;20.65;16.73;;;9.80;99.90;;;;;;2482792;23;20027;-74
2022/05/04 01:35:27;;;;;;;18.35;15.63;;;9.70;99.90;;;;;;2483131;23;20000;-73
2022/05/04 01:36:28;;;;;;;18.73;15.63;;;9.70;99.90;;;;;;2482924;23;20022;-74
2022/05/04 01:37:28;;;;;;;19.20;15.98;;;9.70;99.90;;;;;;2482335;23;20008;-74
2022/05/04 01:38:29;;;;;;;18.73;15.90;;;9.70;99.90;;;;;;2506242;23;20015;-74
2022/05/04 01:39:29;;;;;;;17.88;15.40;;;9.70;99.90;;;;;;2494550;23;20006;-74
2022/05/04 01:40:30;;;;;;;18.60;15.57;;;9.70;99.90;;;;;;2483367;23;20006;-74
2022/05/04 01:42:50;;;;;;;19.88;16.30;;;9.70;99.90;;;;;;2483250;23;20098;-72
2022/05/04 01:43:50;;;;;;;20.23;15.82;;;9.70;99.90;;;;;;2482933;23;20008;-73
2022/05/04 01:44:52;;;;;;;18.30;15.90;;;9.70;99.90;;;;;;2482876;23;20170;-74
2022/05/04 01:45:52;;;;;;;19.15;15.85;;;9.70;99.90;;;;;;2483513;23;20011;-73
2022/05/04 01:46:53;;;;;;;18.40;15.48;;;9.70;99.90;;;;;;2482853;23;20588;-74
2022/05/04 01:47:54;;;;;;;19.33;15.93;;;9.70;99.90;;;;;;2483668;23;20014;-72
2022/05/04 01:48:54;;;;;;;18.15;16.15;;;9.70;99.90;;;;;;2483707;23;20007;-73
2022/05/04 01:49:55;;;;;;;18.92;15.68;;;9.60;99.90;;;;;;2483456;23;20007;-74
2022/05/04 01:50:55;;;;;;;18.15;15.43;;;9.60;99.90;;;;;;2494291;23;20003;-74
2022/05/04 01:51:56;;;;;;;17.73;15.40;;;9.60;99.90;;;;;;2494503;23;20011;-74
2022/05/04 01:52:56;;;;;;;18.77;15.85;;;9.60;99.90;;;;;;2483836;23;20377;-71
2022/05/04 01:53:57;;;;;;;19.23;15.77;;;9.60;99.90;;;;;;2483914;23;20066;-72
2022/05/04 01:55:01;;;;;;;19.85;16.45;;;9.60;99.90;;;;;;2483931;23;20077;-72
2022/05/04 01:56:06;;;;;;;18.45;15.93;;;9.60;99.90;;;;;;2483968;23;20058;-74
2022/05/04 01:57:07;;;;;;;17.52;15.25;;;9.60;99.90;;;;;;2483305;23;20007;-73
2022/05/04 01:58:08;;;;;;;18.10;15.75;;;9.60;99.90;;;;;;2494834;23;20026;-73
2022/05/04 01:59:08;;;;;;;18.30;15.20;;;9.60;99.90;;;;;;2495206;23;20012;-75
2022/05/04 02:00:09;;;;;;;18.10;15.43;;;9.60;99.90;;;;;;2484666;23;20032;-72
2022/05/04 02:01:17;;;;;;;18.48;15.35;;;9.60;99.90;;;;;;2483940;23;20008;-72
2022/05/04 02:02:17;;;;;;;19.67;15.73;;;9.60;99.90;;;;;;2484233;23;20027;-71
2022/05/04 02:03:18;;;;;;;17.25;15.23;;;9.50;99.90;;;;;;2485077;23;20000;-73
2022/05/04 02:04:19;;;;;;;18.33;15.98;;;9.50;99.90;;;;;;2484748;23;20079;-73
2022/05/04 02:05:24;;;;;;;18.27;16.27;;;9.50;99.90;;;;;;2484244;23;20020;-73
2022/05/04 02:06:25;;;;;;;25.10;21.77;;;9.50;99.90;;;;;;2483401;23;20044;-73
2022/05/04 02:07:26;;;;;;;32.28;26.60;;;9.50;99.90;;;;;;2484609;23;20020;-73
2022/05/04 02:08:26;;;;;;;37.78;31.88;;;9.50;99.90;;;;;;2486459;23;20039;-73
2022/05/04 02:09:28;;;;;;;37.13;32.05;;;9.40;99.90;;;;;;2486190;23;20026;-73
2022/05/04 02:10:28;;;;;;;39.20;33.22;;;9.40;99.90;;;;;;2483540;23;20015;-73
2022/05/04 02:11:32;;;;;;;43.50;36.15;;;9.40;99.90;;;;;;2483852;23;20004;-74
2022/05/04 02:12:34;;;;;;;45.03;38.08;;;9.40;99.90;;;;;;2483865;23;20479;-72
2022/05/04 02:13:35;;;;;;;41.50;35.72;;;9.30;99.90;;;;;;2483011;23;20016;-73
2022/05/04 02:14:36;;;;;;;39.85;34.30;;;9.30;99.90;;;;;;2482958;23;20003;-73
2022/05/04 02:15:36;;;;;;;43.30;36.20;;;9.30;99.90;;;;;;2494529;23;20035;-74
2022/05/04 02:16:37;;;;;;;41.80;35.78;;;9.30;99.90;;;;;;2483341;23;20457;-73
2022/05/04 02:17:38;;;;;;;41.22;32.85;;;9.30;99.90;;;;;;2482980;23;20135;-72
2022/05/04 02:18:39;;;;;;;40.10;34.08;;;9.30;99.90;;;;;;2483565;23;20004;-74
2022/05/04 02:19:39;;;;;;;39.13;31.98;;;9.30;99.90;;;;;;2483452;23;20036;-74
2022/05/04 02:20:40;;;;;;;38.53;31.58;;;9.30;99.90;;;;;;2483398;23;20394;-73
2022/05/04 02:21:40;;;;;;;38.80;32.08;;;9.30;99.90;;;;;;2483646;23;20676;-74
2022/05/04 02:22:41;;;;;;;36.65;30.73;;;9.20;99.90;;;;;;2483735;23;20004;-74
2022/05/04 02:23:42;;;;;;;33.72;28.75;;;9.20;99.90;;;;;;2483818;23;20015;-73
2022/05/04 02:24:42;;;;;;;37.20;29.75;;;9.20;99.90;;;;;;2494528;23;20015;-73
2022/05/04 02:25:43;;;;;;;33.22;27.40;;;9.20;99.90;;;;;;2494585;23;20003;-74
2022/05/04 02:26:44;;;;;;;34.50;26.65;;;9.20;99.90;;;;;;2495174;23;20034;-74
2022/05/04 02:27:44;;;;;;;33.13;25.85;;;9.20;99.90;;;;;;2494377;23;20000;-73
2022/05/04 02:28:45;;;;;;;30.92;25.38;;;9.20;99.90;;;;;;2484104;23;20018;-74
2022/05/04 02:29:45;;;;;;;30.55;24.75;;;9.20;99.90;;;;;;2484330;23;20126;-74
2022/05/04 02:30:47;;;;;;;30.77;24.27;;;9.20;99.90;;;;;;2483884;23;20015;-72
2022/05/04 02:31:48;;;;;;;31.55;24.50;;;9.20;99.90;;;;;;2484793;23;20015;-72
2022/05/04 02:32:49;;;;;;;28.52;22.95;;;9.20;99.90;;;;;;2484619;23;20058;-73
2022/05/04 02:33:49;;;;;;;29.75;23.67;;;9.20;99.90;;;;;;2484783;23;20349;-73
2022/05/04 02:38:48;;;;;;;26.02;20.50;;;9.10;99.90;;;;;;2485070;23;20353;-73
2022/05/04 02:39:48;;;;;;;26.23;21.45;;;9.10;99.90;;;;;;2484808;23;20010;-73
2022/05/04 02:40:49;;;;;;;25.40;20.48;;;9.00;99.90;;;;;;2484620;23;20055;-73
2022/05/04 02:41:52;;;;;;;24.75;20.60;;;9.00;99.90;;;;;;2484902;23;20011;-72
2022/05/04 02:42:53;;;;;;;27.10;21.45;;;9.00;99.90;;;;;;2485207;23;20245;-72
2022/05/04 02:43:53;;;;;;;24.05;20.08;;;9.00;99.90;;;;;;2461183;24;20076;-72
2022/05/04 02:44:54;;;;;;;24.08;19.50;;;9.00;99.90;;;;;;2460874;24;20008;-72
2022/05/04 02:45:56;;;;;;;25.58;20.20;;;9.00;99.90;;;;;;2472772;24;20012;-74
2022/05/04 02:46:56;;;;;;;23.73;19.23;;;9.00;99.90;;;;;;2472229;23;20088;-74
2022/05/04 02:47:58;;;;;;;24.95;19.33;;;9.00;99.90;;;;;;2484920;23;20062;-72
2022/05/04 02:48:59;;;;;;;24.80;19.88;;;9.00;99.90;;;;;;2485168;23;20062;-72
2022/05/04 02:50:00;;;;;;;23.63;19.60;;;9.00;99.90;;;;;;2472693;24;20071;-73
2022/05/04 02:51:00;;;;;;;23.20;19.63;;;9.00;99.90;;;;;;2472516;24;20004;-72
2022/05/04 02:52:01;;;;;;;24.20;19.48;;;8.90;99.90;;;;;;2484830;23;20068;-73
2022/05/04 02:53:04;;;;;;;24.58;19.50;;;8.90;99.90;;;;;;2484542;23;20008;-72
2022/05/04 02:54:04;;;;;;;24.73;19.27;;;8.90;99.90;;;;;;2484453;23;20012;-73
2022/05/04 02:55:06;;;;;;;23.38;19.67;;;8.90;99.90;;;;;;2484746;23;20445;-75
2022/05/04 02:56:08;;;;;;;24.42;19.23;;;8.90;99.90;;;;;;2484699;23;20071;-72
2022/05/04 02:57:08;;;;;;;24.02;19.00;;;8.90;99.90;;;;;;2484273;23;20008;-72
2022/05/04 02:58:09;;;;;;;22.40;18.83;;;8.90;99.90;;;;;;2484676;23;20459;-74
2022/05/04 02:59:10;;;;;;;23.50;18.35;;;8.90;99.90;;;;;;2484581;23;20524;-73
2022/05/04 03:00:11;;;;;;;23.25;19.17;;;8.90;99.90;;;;;;2484373;23;20075;-73
2022/05/04 03:02:36;;;;;;;23.38;18.35;;;8.90;99.90;;;;;;2484535;23;20112;-72
2022/05/04 03:03:36;;;;;;;21.08;17.95;;;8.90;99.90;;;;;;2483665;23;20004;-73
2022/05/04 03:04:38;;;;;;;24.67;19.60;;;8.90;99.90;;;;;;2483997;23;20003;-72
2022/05/04 03:05:38;;;;;;;24.30;18.73;;;8.80;99.90;;;;;;2484027;23;20003;-73
2022/05/04 03:06:40;;;;;;;23.85;19.13;;;8.80;99.90;;;;;;2483873;23;20015;-72
2022/05/04 03:07:41;;;;;;;23.85;18.38;;;8.80;99.90;;;;;;2484025;23;20000;-72
2022/05/04 03:08:41;;;;;;;23.15;18.05;;;8.80;99.90;;;;;;2484481;23;20011;-73
2022/05/04 03:09:42;;;;;;;25.45;18.63;;;8.80;99.90;;;;;;2484211;23;20012;-73
2022/05/04 03:12:02;;;;;;;24.42;19.35;;;8.80;99.90;;;;;;2484462;23;20046;-72
2022/05/04 03:13:03;;;;;;;27.83;20.23;;;8.80;99.90;;;;;;2484580;23;20011;-73
2022/05/04 03:14:07;;;;;;;28.60;19.83;;;8.80;99.90;;;;;;2484385;23;20008;-72
2022/05/04 03:15:08;;;;;;;26.67;19.85;;;8.80;99.90;;;;;;2484640;23;20039;-72
2022/05/04 03:16:09;;;;;;;27.20;20.65;;;8.80;99.90;;;;;;2484356;23;20011;-72
2022/05/04 03:17:09;;;;;;;28.20;19.58;;;8.80;99.90;;;;;;2483901;23;20628;-71
2022/05/04 03:18:10;;;;;;;28.30;19.70;;;8.80;99.90;;;;;;2484441;23;20012;-73
2022/05/04 03:19:11;;;;;;;27.63;19.95;;;8.80;99.90;;;;;;2484329;23;20433;-72
2022/05/04 03:20:12;;;;;;;28.65;20.58;;;8.80;99.90;;;;;;2483940;23;20011;-72
2022/05/04 03:21:12;;;;;;;26.85;19.90;;;8.70;99.90;;;;;;2484401;23;20060;-73
2022/05/04 03:22:13;;;;;;;24.00;18.92;;;8.70;99.90;;;;;;2484490;23;20437;-73
2022/05/04 03:23:14;;;;;;;25.70;19.80;;;8.70;99.90;;;;;;2484384;23;20015;-73
2022/05/04 03:24:15;;;;;;;24.63;19.58;;;8.70;99.90;;;;;;2484327;23;20007;-72
2022/05/04 03:25:16;;;;;;;22.10;18.05;;;8.70;99.90;;;;;;2484544;23;20094;-72
2022/05/04 03:26:17;;;;;;;23.83;18.77;;;8.70;99.90;;;;;;2484330;23;20004;-73
2022/05/04 03:27:18;;;;;;;24.55;18.85;;;8.70;99.90;;;;;;2483972;23;20897;-72
2022/05/04 03:28:18;;;;;;;22.92;18.63;;;8.70;99.90;;;;;;2484437;23;20011;-74
2022/05/04 03:29:19;;;;;;;23.35;19.05;;;8.70;99.90;;;;;;2484304;23;20039;-73
2022/05/04 03:30:19;;;;;;;22.85;19.05;;;8.70;99.90;;;;;;2484198;23;20012;-72
2022/05/04 03:31:20;;;;;;;23.00;18.85;;;8.70;99.90;;;;;;2484431;23;20022;-71
2022/05/04 03:32:20;;;;;;;21.25;17.85;;;8.70;99.90;;;;;;2484185;23;20473;-74
2022/05/04 03:33:21;;;;;;;21.73;19.15;;;8.70;99.90;;;;;;2484679;23;20011;-73
2022/05/04 03:34:21;;;;;;;23.50;18.65;;;8.70;99.90;;;;;;2483569;23;20707;-72
2022/05/04 03:35:22;;;;;;;23.17;18.75;;;8.70;99.90;;;;;;2483876;23;20028;-72
2022/05/04 03:36:23;;;;;;;23.33;19.00;;;8.70;99.90;;;;;;2484441;23;20108;-72
2022/05/04 03:37:23;;;;;;;23.20;18.63;;;8.70;99.90;;;;;;2483676;23;20040;-73
2022/05/04 03:38:24;;;;;;;22.00;18.13;;;8.70;99.90;;;;;;2484430;23;20007;-73
2022/05/04 03:39:26;;;;;;;22.27;18.50;;;8.70;99.90;;;;;;2484425;23;20008;-73
2022/05/04 03:40:27;;;;;;;23.00;18.35;;;8.70;99.90;;;;;;2483995;23;20620;-72
2022/05/04 03:41:28;;;;;;;22.50;18.50;;;8.60;99.90;;;;;;2495283;23;20014;-72
2022/05/04 03:42:29;;;;;;;23.50;18.90;;;8.60;99.90;;;;;;2494821;23;20007;-72
2022/05/04 03:43:29;;;;;;;22.30;18.58;;;8.70;99.90;;;;;;2484248;23;20031;-74
2022/05/04 03:44:30;;;;;;;22.27;18.45;;;8.70;99.90;;;;;;2484307;23;20008;-74
2022/05/04 03:45:31;;;;;;;23.35;18.35;;;8.70;99.90;;;;;;2484052;23;20055;-74
2022/05/04 03:46:45;;;;;;;23.83;18.42;;;8.70;99.90;;;;;;2484020;23;20007;-74
2022/05/04 03:47:46;;;;;;;21.55;17.77;;;8.70;99.90;;;;;;2483350;23;20015;-74
2022/05/04 03:48:49;;;;;;;23.15;17.95;;;8.70;99.90;;;;;;2484140;23;20090;-74
2022/05/04 03:49:49;;;;;;;21.50;17.85;;;8.70;99.90;;;;;;2484071;23;20012;-74
2022/05/04 03:50:50;;;;;;;22.48;17.75;;;8.70;99.90;;;;;;2484010;23;20095;-75
2022/05/04 03:51:51;;;;;;;22.65;17.60;;;8.70;99.90;;;;;;2484025;23;20007;-73
2022/05/04 03:52:52;;;;;;;22.15;17.60;;;8.70;99.90;;;;;;2484121;23;20326;-74
2022/05/04 03:53:53;;;;;;;21.33;17.95;;;8.70;99.90;;;;;;2483233;23;20064;-73
2022/05/04 03:54:54;;;;;;;22.95;17.90;;;8.70;99.90;;;;;;2483128;23;20043;-74
2022/05/04 03:55:54;;;;;;;21.65;17.55;;;8.70;99.90;;;;;;2484078;23;20019;-73
2022/05/04 03:56:55;;;;;;;23.00;17.42;;;8.70;99.90;;;;;;2483638;23;20011;-72
2022/05/04 03:57:56;;;;;;;22.30;18.40;;;8.80;99.90;;;;;;2484520;23;20015;-73
2022/05/04 03:58:57;;;;;;;24.52;18.23;;;8.80;99.90;;;;;;2483492;23;20004;-73
2022/05/04 03:59:57;;;;;;;21.80;17.50;;;8.80;99.90;;;;;;2483533;23;20066;-71
2022/05/04 04:00:58;;;;;;;23.35;18.17;;;8.80;99.90;;;;;;2484490;23;20373;-73
2022/05/04 04:01:58;;;;;;;23.42;17.80;;;8.80;99.90;;;;;;2485268;23;20007;-73
2022/05/04 04:02:59;;;;;;;23.65;18.33;;;8.80;99.90;;;;;;2484344;23;20454;-74
2022/05/04 04:04:00;;;;;;;22.10;17.70;;;8.80;99.90;;;;;;2483972;23;20043;-73
2022/05/04 04:05:01;;;;;;;21.98;17.40;;;8.80;99.90;;;;;;2496225;23;20007;-72
2022/05/04 04:06:01;;;;;;;23.65;18.23;;;8.80;99.90;;;;;;2484335;23;20096;-72
2022/05/04 04:07:02;;;;;;;23.88;18.52;;;8.80;99.90;;;;;;2483055;23;20022;-73
2022/05/04 04:08:03;;;;;;;22.73;18.20;;;8.80;99.90;;;;;;2484574;23;20810;-73
2022/05/04 04:09:04;;;;;;;21.90;18.15;;;8.80;99.90;;;;;;2484660;23;20030;-74
2022/05/04 04:10:05;;;;;;;21.98;18.25;;;8.80;99.90;;;;;;2484605;23;20019;-73
2022/05/04 04:11:06;;;;;;;21.17;18.40;;;8.90;99.90;;;;;;2484662;23;20038;-73
2022/05/04 04:12:07;;;;;;;25.25;18.63;;;8.90;99.90;;;;;;2484544;23;20023;-73
2022/05/04 04:13:07;;;;;;;21.67;18.02;;;8.90;99.90;;;;;;2484787;23;20608;-73
2022/05/04 04:14:09;;;;;;;22.92;17.65;;;8.90;99.90;;;;;;2484626;23;20012;-73
2022/05/04 04:15:10;;;;;;;22.67;18.02;;;8.90;99.90;;;;;;2483875;23;20030;-73
2022/05/04 04:16:10;;;;;;;22.67;18.48;;;9.00;99.90;;;;;;2484240;23;20083;-73
2022/05/04 04:17:11;;;;;;;22.00;18.23;;;9.00;99.90;;;;;;2484154;23;20027;-73
2022/05/04 04:18:11;;;;;;;22.88;18.30;;;9.10;99.90;;;;;;2484724;23;20689;-73
2022/05/04 04:19:12;;;;;;;20.83;17.48;;;9.00;99.90;;;;;;2486042;23;20082;-75
2022/05/04 04:21:50;;;;;;;22.05;17.05;;;9.10;99.90;;;;;;2490670;23;20040;-73
2022/05/04 04:22:51;;;;;;;21.38;17.10;;;9.30;99.90;;;;;;2485277;23;20405;-73
2022/05/04 04:23:51;;;;;;;21.10;17.00;;;9.50;99.90;;;;;;2495926;23;20014;-73
2022/05/04 04:24:52;;;;;;;23.42;16.15;;;9.70;99.90;;;;;;2496201;23;20007;-73
2022/05/04 04:25:52;;;;;;;21.90;16.90;;;10.00;99.90;;;;;;2484976;23;20051;-73
2022/05/04 04:26:54;;;;;;;21.58;16.25;;;10.20;99.90;;;;;;2484229;23;20008;-73
2022/05/04 04:27:54;;;;;;;20.13;15.90;;;10.40;99.90;;;;;;2493036;23;20100;-75
2022/05/04 04:28:55;;;;;;;21.60;16.05;;;10.60;99.90;;;;;;2495075;23;20036;-75
2022/05/04 04:29:55;;;;;;;19.35;16.10;;;10.80;99.90;;;;;;2494535;23;19999;-74
2022/05/04 04:30:56;;;;;;;19.55;15.68;;;11.00;99.90;;;;;;2491518;23;20000;-72
2022/05/04 04:31:57;;;;;;;22.00;16.00;;;11.10;99.90;;;;;;2485438;23;20015;-74
2022/05/04 04:32:58;;;;;;;20.33;15.70;;;11.20;99.90;;;;;;2485125;23;20004;-74
2022/05/04 04:34:01;;;;;;;19.55;15.77;;;11.40;99.90;;;;;;2485025;23;20472;-75
2022/05/04 04:35:03;;;;;;;18.63;15.43;;;11.60;99.90;;;;;;2485241;23;20067;-73
2022/05/04 04:36:04;;;;;;;19.92;15.52;;;11.70;99.90;;;;;;2484020;23;20045;-73
2022/05/04 04:37:05;;;;;;;20.35;15.43;;;11.90;99.90;;;;;;2483254;23;20014;-73
2022/05/04 04:38:07;;;;;;;23.67;15.02;;;12.00;99.90;;;;;;2484686;23;20090;-74
2022/05/04 04:39:08;;;;;;;17.85;15.02;;;12.20;99.90;;;;;;2484505;23;20004;-73
2022/05/04 04:40:09;;;;;;;17.25;14.63;;;12.30;99.90;;;;;;2484331;23;20012;-73
2022/05/04 04:41:09;;;;;;;19.55;14.70;;;12.50;99.90;;;;;;2484694;23;20075;-73
2022/05/04 04:42:12;;;;;;;19.73;15.25;;;12.60;99.90;;;;;;2484559;23;20008;-73
2022/05/04 04:43:14;;;;;;;17.08;14.13;;;12.70;99.90;;;;;;2483821;23;20012;-73
2022/05/04 04:44:15;;;;;;;16.85;14.20;;;12.90;99.90;;;;;;2483793;23;20008;-74
2022/05/04 04:45:15;;;;;;;19.70;14.00;;;13.00;99.90;;;;;;2495485;23;20409;-73
2022/05/04 04:46:16;;;;;;;19.30;13.80;;;13.10;99.90;;;;;;2495279;23;20040;-73
2022/05/04 04:47:17;;;;;;;16.33;13.50;;;13.20;99.90;;;;;;2483463;23;20020;-73
2022/05/04 04:48:17;;;;;;;16.90;13.70;;;13.30;99.90;;;;;;2484195;23;20043;-74
2022/05/04 04:49:18;;;;;;;15.65;13.77;;;13.40;99.90;;;;;;2495344;23;20059;-73
2022/05/04 04:50:19;;;;;;;17.95;13.10;;;13.50;99.90;;;;;;2495289;23;20026;-74
2022/05/04 04:51:19;;;;;;;15.60;13.65;;;13.60;99.90;;;;;;2484472;23;20008;-74
2022/05/04 04:52:20;;;;;;;16.77;13.73;;;13.70;99.90;;;;;;2484162;23;20014;-73
2022/05/04 04:53:21;;;;;;;18.60;14.10;;;13.70;99.90;;;;;;2484270;23;20585;-73
2022/05/04 04:54:21;;;;;;;19.67;14.25;;;13.80;99.90;;;;;;2484235;23;20377;-73
2022/05/04 04:55:22;;;;;;;20.08;14.48;;;13.90;99.90;;;;;;2484150;23;20698;-74
2022/05/04 04:56:23;;;;;;;17.00;14.15;;;13.90;99.90;;;;;;2483528;23;20071;-71
2022/05/04 04:57:23;;;;;;;19.23;14.00;;;14.00;99.90;;;;;;2482884;23;20566;-73
2022/05/04 04:58:25;;;;;;;18.05;13.60;;;14.10;99.90;;;;;;2483486;23;20007;-75
2022/05/04 04:59:26;;;;;;;16.17;13.35;;;14.20;99.90;;;;;;2483731;23;20337;-74
2022/05/04 05:00:26;;;;;;;18.90;13.63;;;14.30;99.90;;;;;;2483450;23;20035;-74
2022/05/04 05:01:27;;;;;;;14.90;12.80;;;14.40;99.90;;;;;;2483338;23;20091;-74
2022/05/04 05:02:28;;;;;;;19.65;13.15;;;14.50;99.90;;;;;;2484312;23;20010;-75
2022/05/04 05:03:29;;;;;;;16.58;13.85;;;14.60;99.40;;;;;;2484959;23;20024;-74
2022/05/04 05:04:30;;;;;;;16.90;13.82;;;14.60;99.10;;;;;;2484613;23;20565;-75
2022/05/04 05:05:30;;;;;;;16.08;13.23;;;14.60;98.80;;;;;;2485015;23;20074;-74
2022/05/04 05:06:31;;;;;;;18.33;14.15;;;14.70;98.40;;;;;;2484862;23;20449;-74
2022/05/04 05:07:32;;;;;;;15.63;13.27;;;14.80;98.40;;;;;;2484375;23;20449;-73
2022/05/04 05:08:33;;;;;;;17.05;13.73;;;14.80;98.00;;;;;;2484921;23;20071;-71
2022/05/04 05:09:36;;;;;;;15.55;13.57;;;14.80;97.70;;;;;;2494692;23;20111;-73
2022/05/04 05:10:37;;;;;;;17.63;14.10;;;14.80;97.30;;;;;;2494750;23;20047;-72
2022/05/04 05:11:38;;;;;;;18.30;14.63;;;14.80;96.80;;;;;;2483953;23;20092;-72
2022/05/04 05:12:38;;;;;;;16.85;13.65;;;14.80;96.60;;;;;;2484049;23;20818;-75
2022/05/04 05:16:06;;;;;;;17.88;13.95;;;14.80;96.50;;;;;;2484840;23;20345;-74
2022/05/04 05:16:19;;;;;;;16.20;14.40;;;14.90;95.60;;;;;;2495533;23;20003;-76
2022/05/04 05:17:19;;;;;;;18.10;14.82;;;14.90;94.90;;;;;;2495252;23;20011;-75
2022/05/04 05:18:20;;;;;;;19.35;15.50;;;14.90;94.60;;;;;;2495896;23;20465;-75
2022/05/04 05:19:20;;;;;;;19.02;15.27;;;14.80;94.40;;;;;;2496138;23;20007;-75
2022/05/04 05:20:21;;;;;;;17.85;14.45;;;14.70;94.50;;;;;;2485220;23;20075;-74
2022/05/04 05:21:22;;;;;;;20.13;15.82;;;14.60;94.70;;;;;;2485083;23;20461;-73
2022/05/04 05:22:22;;;;;;;26.58;16.08;;;14.40;95.10;;;;;;2484503;23;20091;-74
2022/05/04 05:23:23;;;;;;;19.45;15.32;;;14.30;95.90;;;;;;2484242;23;20014;-74
2022/05/04 05:24:24;;;;;;;17.83;14.20;;;14.20;96.40;;;;;;2485231;23;20014;-78